createdAt,value
2018-07-28T00:00:13.516Z,7.57
2018-07-28T00:02:42.466Z,7.90
2018-07-28T00:05:11.328Z,8.23
2018-07-28T00:07:40.159Z,8.27
2018-07-28T00:10:12.099Z,10.07
2018-07-28T00:12:41.332Z,8.00
2018-07-28T00:15:11.627Z,8.17
2018-07-28T00:17:41.352Z,7.93
2018-07-28T00:20:11.898Z,9.00
2018-07-28T00:22:40.784Z,8.67
2018-07-28T00:25:11.593Z,7.80
2018-07-28T00:27:40.731Z,8.30
2018-07-28T00:30:11.989Z,9.07
2018-07-28T00:32:40.980Z,8.87
2018-07-28T00:35:09.897Z,8.00
2018-07-28T00:37:38.733Z,7.97
2018-07-28T00:40:08.170Z,8.50
2018-07-28T00:42:37.382Z,7.73
2018-07-28T00:45:06.919Z,8.20
2018-07-28T00:47:35.736Z,8.73
2018-07-28T00:50:05.955Z,7.90
2018-07-28T00:52:34.837Z,8.60
2018-07-28T00:55:03.726Z,10.03
2018-07-28T00:57:32.592Z,9.13
2018-07-28T01:00:01.460Z,7.80
2018-07-28T01:02:30.312Z,8.57
2018-07-28T01:04:59.176Z,8.90
2018-07-28T01:07:28.012Z,7.90
2018-07-28T01:09:56.858Z,8.70
2018-07-28T01:12:25.723Z,7.90
2018-07-28T01:14:54.607Z,9.03
2018-07-28T01:17:23.493Z,8.47
2018-07-28T01:19:52.379Z,8.40
2018-07-28T01:22:21.213Z,8.67
2018-07-28T01:24:50.136Z,9.30
2018-07-28T01:27:18.993Z,9.27
2018-07-28T01:29:47.857Z,9.30
2018-07-28T01:32:16.733Z,10.03
2018-07-28T01:34:45.567Z,9.67
2018-07-28T01:37:14.420Z,10.23
2018-07-28T01:39:43.285Z,10.13
2018-07-28T01:42:12.172Z,9.63
2018-07-28T01:44:41.000Z,10.60
2018-07-28T01:47:09.847Z,9.90
2018-07-28T01:49:38.713Z,9.70
2018-07-28T01:52:07.796Z,10.40
2018-07-28T01:54:36.644Z,9.97
2018-07-28T01:57:05.599Z,9.37
2018-07-28T01:59:34.473Z,9.50
2018-07-28T02:02:03.414Z,9.40
2018-07-28T02:04:32.299Z,10.50
2018-07-28T02:07:01.193Z,9.93
2018-07-28T02:09:29.986Z,11.10
2018-07-28T02:11:58.863Z,10.10
2018-07-28T02:14:27.743Z,10.47
2018-07-28T02:16:56.584Z,11.03
2018-07-28T02:19:25.416Z,10.70
2018-07-28T02:21:54.270Z,11.20
2018-07-28T02:24:23.083Z,10.60
2018-07-28T02:26:51.939Z,10.63
2018-07-28T02:29:20.801Z,10.67
2018-07-28T02:31:49.639Z,12.13
2018-07-28T02:34:18.462Z,11.40
2018-07-28T02:36:47.306Z,11.87
2018-07-28T02:39:16.131Z,11.60
2018-07-28T02:41:44.930Z,12.17
2018-07-28T02:44:13.820Z,11.30
2018-07-28T02:46:42.703Z,10.77
2018-07-28T02:49:11.579Z,12.60
2018-07-28T02:51:40.429Z,13.33
2018-07-28T02:54:09.297Z,12.23
2018-07-28T02:56:38.151Z,12.20
2018-07-28T02:59:06.993Z,11.70
2018-07-28T03:01:35.853Z,11.70
2018-07-28T03:04:04.769Z,11.97
2018-07-28T03:06:33.611Z,10.77
2018-07-28T03:09:02.502Z,11.63
2018-07-28T03:11:31.364Z,11.60
2018-07-28T03:14:00.235Z,12.43
2018-07-28T03:16:29.044Z,11.70
2018-07-28T03:18:57.891Z,11.80
2018-07-28T03:21:26.759Z,12.23
2018-07-28T03:23:55.744Z,12.70
2018-07-28T03:26:24.542Z,11.10
2018-07-28T03:28:53.407Z,11.80
2018-07-28T03:31:22.638Z,11.63
2018-07-28T03:33:51.471Z,12.40
2018-07-28T03:36:20.299Z,10.87
2018-07-28T03:38:49.152Z,11.00
2018-07-28T03:41:18.040Z,11.87
2018-07-28T03:43:46.826Z,11.90
2018-07-28T03:46:15.654Z,10.80
2018-07-28T03:48:44.569Z,11.90
2018-07-28T03:51:13.412Z,11.90
2018-07-28T03:53:42.228Z,12.40
2018-07-28T03:56:11.050Z,12.30
2018-07-28T03:58:39.884Z,10.77
2018-07-28T04:01:08.748Z,11.60
2018-07-28T04:03:37.583Z,12.13
2018-07-28T04:06:06.485Z,12.23
2018-07-28T04:08:35.339Z,10.70
2018-07-28T04:11:04.196Z,11.83
2018-07-28T04:13:33.105Z,11.30
2018-07-28T04:16:01.941Z,10.57
2018-07-28T04:18:30.768Z,10.00
2018-07-28T04:20:59.635Z,10.60
2018-07-28T04:23:28.516Z,11.20
2018-07-28T04:25:57.367Z,10.63
2018-07-28T04:28:26.564Z,10.70
2018-07-28T04:30:55.412Z,10.77
2018-07-28T04:33:24.265Z,11.00
2018-07-28T04:35:53.171Z,10.33
2018-07-28T04:38:22.037Z,10.50
2018-07-28T04:40:50.898Z,11.67
2018-07-28T04:43:19.764Z,10.80
2018-07-28T04:45:48.669Z,9.57
2018-07-28T04:48:17.732Z,10.60
2018-07-28T04:50:46.624Z,9.70
2018-07-28T04:53:15.448Z,10.57
2018-07-28T04:55:44.307Z,9.60
2018-07-28T04:58:13.195Z,10.33
2018-07-28T05:00:42.066Z,11.17
2018-07-28T05:03:10.989Z,10.87
2018-07-28T05:05:39.837Z,11.43
2018-07-28T05:08:08.695Z,10.27
2018-07-28T05:10:37.517Z,10.20
2018-07-28T05:13:06.351Z,10.27
2018-07-28T05:15:35.208Z,10.80
2018-07-28T05:18:04.037Z,11.00
2018-07-28T05:20:32.898Z,11.50
2018-07-28T05:23:01.756Z,11.80
2018-07-28T05:25:30.562Z,11.30
2018-07-28T05:27:59.407Z,11.80
2018-07-28T05:30:28.252Z,11.63
2018-07-28T05:32:57.160Z,11.70
2018-07-28T05:35:25.992Z,10.70
2018-07-28T05:37:54.815Z,10.80
2018-07-28T05:40:23.638Z,11.23
2018-07-28T05:42:52.453Z,12.37
2018-07-28T05:45:21.256Z,10.50
2018-07-28T05:47:50.144Z,11.00
2018-07-28T05:50:19.022Z,11.77
2018-07-28T05:52:47.846Z,11.67
2018-07-28T05:55:16.647Z,13.13
2018-07-28T05:57:45.449Z,12.03
2018-07-28T06:00:14.291Z,12.40
2018-07-28T06:02:43.276Z,13.30
2018-07-28T06:05:12.130Z,12.03
2018-07-28T06:07:40.966Z,13.67
2018-07-28T06:10:09.804Z,11.53
2018-07-28T06:12:38.639Z,12.73
2018-07-28T06:15:08.710Z,10.87
2018-07-28T06:17:37.664Z,10.87
2018-07-28T06:20:08.029Z,10.53
2018-07-28T06:22:37.340Z,10.80
2018-07-28T06:25:07.555Z,11.40
2018-07-28T06:27:36.426Z,10.23
2018-07-28T06:30:06.859Z,11.07
2018-07-28T06:32:35.687Z,11.13
2018-07-28T06:35:04.632Z,9.37
2018-07-28T06:37:33.540Z,9.97
2018-07-28T06:40:02.363Z,9.93
2018-07-28T06:42:31.237Z,9.90
2018-07-28T06:45:00.099Z,10.37
2018-07-28T06:47:28.929Z,8.87
2018-07-28T06:49:57.754Z,10.37
2018-07-28T06:52:26.783Z,9.20
2018-07-28T06:54:55.933Z,8.93
2018-07-28T06:57:24.805Z,9.27
2018-07-28T06:59:54.064Z,8.80
2018-07-28T07:02:22.857Z,10.17
2018-07-28T07:04:51.794Z,9.00
2018-07-28T07:07:20.633Z,8.73
2018-07-28T07:09:49.484Z,9.00
2018-07-28T07:12:18.347Z,8.13
2018-07-28T07:14:47.183Z,8.53
2018-07-28T07:17:16.243Z,7.60
2018-07-28T07:19:45.092Z,8.80
2018-07-28T07:22:13.919Z,8.87
2018-07-28T07:24:42.853Z,7.97
2018-07-28T07:27:11.693Z,7.90
2018-07-28T07:29:40.582Z,8.03
2018-07-28T07:32:09.457Z,8.50
2018-07-28T07:34:38.363Z,8.07
2018-07-28T07:37:07.246Z,8.00
2018-07-28T07:39:36.039Z,8.20
2018-07-28T07:42:04.864Z,8.70
2018-07-28T07:44:33.734Z,8.20
2018-07-28T07:47:02.614Z,7.63
2018-07-28T07:49:31.452Z,8.00
2018-07-28T07:52:00.321Z,8.07
2018-07-28T07:54:29.213Z,8.20
2018-07-28T07:56:58.058Z,7.87
2018-07-28T07:59:26.901Z,8.07
2018-07-28T08:01:55.714Z,7.60
2018-07-28T08:04:24.531Z,7.13
2018-07-28T08:06:53.360Z,7.50
2018-07-28T08:09:22.247Z,7.83
2018-07-28T08:11:51.079Z,7.93
2018-07-28T08:14:19.953Z,7.80
2018-07-28T08:16:48.768Z,6.90
2018-07-28T08:19:17.633Z,8.57
2018-07-28T08:21:46.510Z,8.00
2018-07-28T08:24:15.629Z,7.73
2018-07-28T08:26:44.531Z,7.80
2018-07-28T08:29:13.579Z,6.70
2018-07-28T08:31:42.508Z,7.80
2018-07-28T08:34:11.378Z,8.33
2018-07-28T08:36:40.218Z,8.70
2018-07-28T08:39:13.268Z,7.57
2018-07-28T08:41:43.134Z,7.90
2018-07-28T08:44:12.443Z,7.70
2018-07-28T08:46:41.301Z,7.87
2018-07-28T08:49:10.305Z,7.23
2018-07-28T08:54:36.454Z,7.70
2018-07-28T08:57:05.316Z,7.43
2018-07-28T08:59:34.160Z,6.80
2018-07-28T09:02:03.065Z,6.90
2018-07-28T09:04:31.880Z,6.33
2018-07-28T09:07:00.773Z,6.53
2018-07-28T09:09:29.616Z,5.80
2018-07-28T09:11:58.582Z,6.13
2018-07-28T09:14:27.436Z,7.03
2018-07-28T09:16:56.373Z,6.30
2018-07-28T09:19:25.276Z,6.83
2018-07-28T09:21:54.160Z,6.53
2018-07-28T09:24:22.974Z,6.10
2018-07-28T09:26:51.858Z,6.53
2018-07-28T09:29:20.717Z,6.80
2018-07-28T09:31:49.509Z,6.10
2018-07-28T09:34:18.408Z,6.87
2018-07-28T09:36:47.277Z,7.17
2018-07-28T09:39:16.074Z,7.43
2018-07-28T09:41:44.951Z,6.40
2018-07-28T09:44:13.866Z,6.50
2018-07-28T09:46:42.719Z,6.43
2018-07-28T09:49:11.551Z,5.80
2018-07-28T09:51:40.387Z,7.30
2018-07-28T09:54:09.289Z,7.30
2018-07-28T09:56:38.120Z,6.67
2018-07-28T09:59:07.137Z,6.67
2018-07-28T10:01:36.008Z,6.30
2018-07-28T10:04:04.843Z,6.20
2018-07-28T10:06:33.634Z,6.00
2018-07-28T10:09:02.539Z,5.80
2018-07-28T10:11:31.402Z,6.57
2018-07-28T10:14:00.282Z,6.23
2018-07-28T10:16:29.148Z,7.20
2018-07-28T10:18:57.983Z,6.30
2018-07-28T10:21:26.831Z,6.20
2018-07-28T10:23:55.656Z,5.83
2018-07-28T10:26:24.549Z,6.07
2018-07-28T10:28:53.424Z,6.30
2018-07-28T10:31:22.313Z,6.50
2018-07-28T10:33:51.147Z,6.00
2018-07-28T10:36:19.965Z,6.20
2018-07-28T10:38:48.841Z,5.50
2018-07-28T10:41:17.707Z,6.30
2018-07-28T10:43:46.540Z,6.03
2018-07-28T10:46:19.396Z,6.23
2018-07-28T10:48:49.103Z,6.40
2018-07-28T10:51:18.148Z,5.40
2018-07-28T10:53:47.051Z,6.37
2018-07-28T10:56:16.132Z,5.50
2018-07-28T10:58:45.372Z,5.40
2018-07-28T11:01:14.208Z,5.57
2018-07-28T11:03:43.074Z,5.57
2018-07-28T11:06:11.971Z,6.40
2018-07-28T11:08:40.796Z,5.77
2018-07-28T11:11:09.667Z,6.40
2018-07-28T11:13:38.511Z,6.50
2018-07-28T11:16:07.348Z,5.63
2018-07-28T11:18:36.209Z,4.93
2018-07-28T11:21:05.077Z,5.03
2018-07-28T11:23:54.969Z,5.07
2018-07-28T11:26:23.811Z,4.80
2018-07-28T11:28:53.564Z,4.50
2018-07-28T11:31:40.906Z,4.63
2018-07-28T11:34:27.003Z,4.90
2018-07-28T11:37:13.421Z,4.53
2018-07-28T11:39:53.683Z,3.70
2018-07-28T11:42:40.155Z,4.30
2018-07-28T11:45:15.223Z,4.50
2018-07-28T11:47:44.128Z,3.70
2018-07-28T11:50:12.984Z,3.83
2018-07-28T11:52:42.348Z,4.57
2018-07-28T11:55:11.373Z,4.37
2018-07-28T11:57:40.214Z,4.53
2018-07-28T12:00:10.421Z,4.40
2018-07-28T12:02:39.532Z,3.47
2018-07-28T12:05:08.639Z,3.30
2018-07-28T12:07:37.492Z,3.13
2018-07-28T12:10:08.050Z,3.20
2018-07-28T12:12:36.944Z,3.13
2018-07-28T12:15:06.883Z,2.97
2018-07-28T12:17:35.772Z,2.90
2018-07-28T12:20:04.911Z,3.40
2018-07-28T12:22:33.785Z,3.30
2018-07-28T12:25:02.575Z,3.60
2018-07-28T12:27:31.393Z,3.50
2018-07-28T12:30:00.268Z,2.80
2018-07-28T12:32:29.139Z,2.25
2018-07-28T12:34:58.064Z,2.72
2018-07-28T12:37:26.836Z,2.40
2018-07-28T12:39:55.623Z,2.72
2018-07-28T12:42:24.470Z,2.90
2018-07-28T12:44:53.348Z,2.93
2018-07-28T12:47:22.228Z,2.80
2018-07-28T12:49:51.062Z,3.43
2018-07-28T12:52:19.900Z,3.43
2018-07-28T12:54:48.702Z,4.10
2018-07-28T12:57:17.490Z,4.20
2018-07-28T12:59:46.299Z,4.10
2018-07-28T13:02:15.152Z,3.60
2018-07-28T13:04:44.020Z,3.10
2018-07-28T13:07:12.810Z,3.27
2018-07-28T13:09:41.650Z,3.00
2018-07-28T13:12:10.471Z,3.20
2018-07-28T13:14:39.355Z,3.20
2018-07-28T13:17:08.200Z,2.77
2018-07-28T13:19:37.020Z,3.15
2018-07-28T13:22:06.066Z,2.70
2018-07-28T13:24:34.958Z,2.90
2018-07-28T13:27:03.785Z,2.55
2018-07-28T13:29:32.631Z,2.87
2018-07-28T13:32:01.495Z,3.02
2018-07-28T13:34:30.345Z,2.90
2018-07-28T13:36:59.170Z,3.77
2018-07-28T13:39:28.024Z,3.40
2018-07-28T13:41:56.844Z,3.03
2018-07-28T13:44:25.547Z,2.47
2018-07-28T13:46:54.331Z,2.50
2018-07-28T13:49:23.234Z,2.33
2018-07-28T13:51:52.036Z,2.10
2018-07-28T13:54:20.889Z,2.27
2018-07-28T13:56:49.779Z,2.20
2018-07-28T13:59:18.655Z,2.00
2018-07-28T14:01:47.626Z,2.02
2018-07-28T14:04:16.482Z,1.90
2018-07-28T14:06:45.336Z,2.02
2018-07-28T14:09:14.184Z,2.00
2018-07-28T14:11:43.025Z,1.77
2018-07-28T14:14:12.005Z,2.40
2018-07-28T14:16:40.799Z,2.17
2018-07-28T14:19:09.685Z,2.15
2018-07-28T14:21:38.471Z,1.92
2018-07-28T14:24:07.287Z,1.80
2018-07-28T14:26:36.112Z,2.10
2018-07-28T14:29:04.983Z,1.85
2018-07-28T14:31:33.868Z,1.70
2018-07-28T14:34:02.750Z,1.87
2018-07-28T14:36:31.571Z,2.10
2018-07-28T14:39:00.564Z,2.12
2018-07-28T14:41:29.404Z,2.42
2018-07-28T14:43:59.046Z,3.15
2018-07-28T14:46:27.917Z,2.62
2018-07-28T14:48:56.789Z,2.90
2018-07-28T14:51:25.598Z,3.08
2018-07-28T14:53:54.471Z,2.72
2018-07-28T14:56:23.364Z,2.90
2018-07-28T14:58:52.190Z,2.80
2018-07-28T15:01:20.992Z,2.58
2018-07-28T15:03:49.806Z,2.70
2018-07-28T15:06:18.724Z,3.30
2018-07-28T15:08:47.546Z,3.53
2018-07-28T15:11:16.389Z,3.00
2018-07-28T15:13:45.219Z,3.00
2018-07-28T15:16:14.117Z,3.03
2018-07-28T15:18:42.950Z,2.60
2018-07-28T15:21:11.829Z,3.10
2018-07-28T15:23:40.649Z,2.98
2018-07-28T15:26:09.495Z,2.60
2018-07-28T15:28:38.417Z,2.60
2018-07-28T15:31:07.443Z,2.40
2018-07-28T15:33:36.541Z,3.12
2018-07-28T15:36:05.664Z,2.52
2018-07-28T15:38:34.498Z,2.67
2018-07-28T15:41:03.319Z,2.73
2018-07-28T15:43:32.131Z,3.10
2018-07-28T15:46:01.056Z,3.33
2018-07-28T15:48:29.913Z,3.10
2018-07-28T15:50:58.816Z,2.87
2018-07-28T15:53:27.656Z,3.00
2018-07-28T15:55:56.530Z,3.70
2018-07-28T15:58:25.411Z,3.87
2018-07-28T16:00:54.257Z,2.93
2018-07-28T16:03:23.066Z,3.00
2018-07-28T16:05:51.939Z,2.93
2018-07-28T16:08:20.803Z,3.10
2018-07-28T16:10:49.644Z,2.70
2018-07-28T16:13:18.601Z,3.00
2018-07-28T16:15:47.519Z,3.40
2018-07-28T16:18:16.324Z,3.30
2018-07-28T16:20:45.148Z,2.70
2018-07-28T16:23:14.012Z,2.50
2018-07-28T16:25:42.839Z,2.63
2018-07-28T16:28:11.614Z,2.73
2018-07-28T16:30:40.524Z,2.97
2018-07-28T16:33:09.387Z,3.20
2018-07-28T16:35:38.236Z,2.97
2018-07-28T16:38:07.134Z,3.27
2018-07-28T16:40:36.040Z,3.57
2018-07-28T16:43:04.950Z,3.60
2018-07-28T16:45:33.800Z,3.23
2018-07-28T16:48:02.634Z,4.00
2018-07-28T16:50:31.507Z,3.87
2018-07-28T16:53:00.427Z,3.70
2018-07-28T16:55:29.321Z,3.90
2018-07-28T16:57:58.938Z,3.20
2018-07-28T17:00:27.778Z,3.60
2018-07-28T17:02:56.571Z,3.30
2018-07-28T17:05:25.538Z,3.90
2018-07-28T17:07:54.325Z,3.50
2018-07-28T17:10:23.120Z,3.50
2018-07-28T17:12:51.919Z,3.50
2018-07-28T17:15:20.790Z,3.80
2018-07-28T17:17:49.631Z,3.60
2018-07-28T17:20:18.455Z,3.77
2018-07-28T17:22:47.336Z,4.40
2018-07-28T17:25:16.208Z,4.50
2018-07-28T17:27:45.035Z,4.50
2018-07-28T17:30:13.864Z,4.77
2018-07-28T17:32:42.686Z,5.13
2018-07-28T17:35:11.475Z,4.70
2018-07-28T17:37:40.359Z,5.50
2018-07-28T17:40:09.191Z,7.93
2018-07-28T17:42:38.066Z,7.43
2018-07-28T17:45:07.531Z,6.63
2018-07-28T17:47:36.372Z,5.80
2018-07-28T17:50:06.212Z,6.20
2018-07-28T17:52:35.130Z,6.77
2018-07-28T17:55:03.967Z,6.70
2018-07-28T17:57:32.791Z,5.00
2018-07-28T18:00:01.701Z,6.90
2018-07-28T18:02:30.444Z,5.83
2018-07-28T18:04:59.287Z,6.00
2018-07-28T18:07:28.190Z,6.27
2018-07-28T18:09:57.027Z,5.00
2018-07-28T18:12:25.887Z,5.90
2018-07-28T18:14:54.711Z,5.60
2018-07-28T18:17:23.562Z,5.00
2018-07-28T18:19:52.440Z,5.67
2018-07-28T18:22:21.242Z,5.47
2018-07-28T18:24:50.106Z,5.20
2018-07-28T18:27:18.975Z,4.87
2018-07-28T18:29:47.766Z,5.23
2018-07-28T18:32:16.643Z,5.40
2018-07-28T18:34:45.480Z,4.50
2018-07-28T18:37:14.328Z,5.03
2018-07-28T18:39:43.155Z,5.30
2018-07-28T18:42:12.040Z,5.20
2018-07-28T18:44:40.888Z,5.33
2018-07-28T18:47:09.737Z,6.27
2018-07-28T18:49:38.583Z,6.23
2018-07-28T18:52:07.730Z,5.90
2018-07-28T18:54:36.638Z,5.40
2018-07-28T18:57:05.769Z,6.10
2018-07-28T18:59:34.628Z,6.10
2018-07-28T19:02:03.467Z,6.80
2018-07-28T19:04:32.278Z,5.67
2018-07-28T19:07:01.075Z,6.50
2018-07-28T19:09:35.276Z,5.57
2018-07-28T19:12:04.123Z,5.77
2018-07-28T19:14:36.695Z,6.07
2018-07-28T19:17:05.584Z,5.73
2018-07-28T19:19:34.431Z,5.93
2018-07-28T19:22:03.311Z,5.43
2018-07-28T19:24:32.191Z,5.97
2018-07-28T19:27:00.987Z,6.47
2018-07-28T19:29:41.610Z,5.70
2018-07-28T19:32:10.693Z,6.33
2018-07-28T19:34:39.859Z,5.63
2018-07-28T19:37:14.093Z,6.07
2018-07-28T19:39:42.892Z,6.90
2018-07-28T19:42:17.212Z,5.97
2018-07-28T19:44:46.011Z,6.77
2018-07-28T19:47:14.835Z,6.37
2018-07-28T19:49:43.684Z,6.30
2018-07-28T19:52:12.541Z,6.57
2018-07-28T19:54:41.371Z,6.30
2018-07-28T19:57:10.191Z,6.50
2018-07-28T19:59:39.032Z,6.53
2018-07-28T20:02:07.966Z,6.17
2018-07-28T20:04:36.800Z,8.07
2018-07-28T20:07:05.621Z,7.30
2018-07-28T20:09:34.460Z,7.80
2018-07-28T20:12:03.287Z,7.73
2018-07-28T20:14:32.160Z,8.33
2018-07-28T20:17:01.059Z,8.13
2018-07-28T20:19:29.943Z,8.50
2018-07-28T20:21:58.751Z,8.57
2018-07-28T20:24:27.611Z,8.47
2018-07-28T20:26:56.456Z,7.90
2018-07-28T20:29:25.291Z,7.90
2018-07-28T20:31:54.139Z,8.20
2018-07-28T20:34:22.955Z,8.50
2018-07-28T20:36:51.803Z,7.80
2018-07-28T20:39:20.693Z,7.97
2018-07-28T20:41:49.534Z,7.73
2018-07-28T20:44:18.379Z,8.10
2018-07-28T20:46:47.247Z,7.50
2018-07-28T20:49:16.099Z,8.60
2018-07-28T20:51:44.951Z,8.60
2018-07-28T20:54:13.795Z,8.87
2018-07-28T20:56:42.631Z,9.33
2018-07-28T20:59:11.301Z,9.47
2018-07-28T21:01:40.133Z,8.93
2018-07-28T21:04:08.955Z,8.67
2018-07-28T21:06:37.834Z,9.47
2018-07-28T21:09:08.143Z,12.30
2018-07-28T21:11:36.950Z,10.33
2018-07-28T21:14:05.766Z,8.90
2018-07-28T21:16:34.678Z,8.20
2018-07-28T21:19:03.560Z,8.73
2018-07-28T21:21:32.419Z,9.33
2018-07-28T21:24:01.243Z,10.10
2018-07-28T21:26:30.106Z,9.93
2018-07-28T21:28:58.934Z,9.80
2018-07-28T21:31:27.749Z,10.53
2018-07-28T21:33:56.575Z,10.43
2018-07-28T21:36:25.468Z,10.07
2018-07-28T21:38:54.303Z,9.27
2018-07-28T21:41:23.383Z,9.83
2018-07-28T21:43:52.220Z,9.77
2018-07-28T21:46:21.172Z,10.60
2018-07-28T21:48:50.432Z,8.90
2018-07-28T21:51:19.246Z,9.50
2018-07-28T21:53:48.055Z,8.73
2018-07-28T21:56:21.593Z,8.90
2018-07-28T21:58:50.566Z,9.00
2018-07-28T22:01:19.498Z,9.47
2018-07-28T22:03:48.385Z,9.40
2018-07-28T22:06:17.073Z,9.37
2018-07-28T22:08:45.939Z,9.77
2018-07-28T22:11:14.856Z,8.90
2018-07-28T22:13:43.722Z,9.33
2018-07-28T22:16:12.606Z,8.77
2018-07-28T22:18:41.423Z,8.70
2018-07-28T22:21:11.488Z,9.20
2018-07-28T22:23:40.511Z,10.63
2018-07-28T22:26:09.339Z,13.50
2018-07-28T22:28:38.417Z,20.00
2018-07-28T22:31:07.255Z,11.27
2018-07-28T22:33:36.110Z,10.40
2018-07-28T22:36:04.939Z,9.70
2018-07-28T22:38:33.722Z,9.27
2018-07-28T22:41:02.573Z,10.03
2018-07-28T22:43:31.364Z,9.33
2018-07-28T22:46:00.175Z,9.47
2018-07-28T22:48:29.036Z,10.17
2018-07-28T22:50:57.846Z,11.00
2018-07-28T22:53:26.677Z,10.13
2018-07-28T22:55:55.552Z,10.00
2018-07-28T22:58:24.383Z,9.10
2018-07-28T23:00:53.260Z,9.30
2018-07-28T23:03:22.082Z,10.40
2018-07-28T23:05:50.980Z,10.70
2018-07-28T23:08:19.795Z,11.07
2018-07-28T23:10:48.606Z,12.77
2018-07-28T23:13:17.419Z,13.50
2018-07-28T23:15:46.271Z,11.20
2018-07-28T23:18:15.084Z,11.30
2018-07-28T23:20:43.923Z,11.93
2018-07-28T23:23:12.811Z,10.63
2018-07-28T23:25:41.614Z,11.00
2018-07-28T23:28:10.430Z,10.40
2018-07-28T23:30:39.289Z,10.23
2018-07-28T23:33:08.113Z,11.87
2018-07-28T23:35:36.996Z,11.90
2018-07-28T23:38:05.884Z,11.73
2018-07-28T23:40:34.686Z,11.43
2018-07-28T23:43:03.547Z,11.30
2018-07-28T23:45:32.347Z,12.27
2018-07-28T23:48:01.248Z,13.27
2018-07-28T23:50:30.075Z,11.27
2018-07-28T23:52:58.874Z,12.63
2018-07-28T23:55:27.765Z,12.83
2018-07-28T23:57:56.566Z,13.73
